Data for 04/10/2006

Time Sea-Level Adjusted Pressure Absolute Pressure Temperature Relative Humidity Dew Point   
(mb) (inHg) (mb) (inHg) (C) (F) (%) (C) (F)
00:05 1009 29.8 838 24.75 6.5 43.6 57 -1.5 29.2
00:10 1009 29.8 838 24.75 6.3 43.4 58 -1.3 29.6
00:15 1009 29.8 838 24.75 6 42.9 61 -1 30.2
00:20 1009 29.8 838 24.75 5.8 42.4 61 -1.2 29.8
00:25 1009 29.8 838 24.75 5.7 42.2 60 -1.4 29.5
00:30 1009 29.8 838 24.75 5.7 42.3 60 -1.4 29.5
00:35 1009 29.8 838 24.75 5.8 42.5 59 -1.5 29.3
00:40 1009 29.8 838 24.75 5.9 42.6 59 -1.4 29.5
00:45 1009 29.8 838 24.75 5.8 42.5 60 -1.3 29.6
00:50 1009 29.8 838 24.75 5.7 42.3 61 -1.3 29.7
00:55 1009 29.8 838 24.75 5.7 42.2 61 -1.3 29.7
01:00 1008 29.77 838 24.75 5.7 42.2 61 -1.2 29.9
01:05 1008 29.77 837 24.72 5.6 42 62 -1.1 30
01:10 1008 29.77 837 24.72 5.6 42.1 62 -1.2 29.9
01:15 1008 29.77 837 24.72 5.7 42.3 60 -1.5 29.4
01:20 1008 29.77 837 24.72 5.9 42.6 59 -1.5 29.2
01:25 1008 29.77 837 24.72 6.1 42.9 58 -1.7 29
01:30 1008 29.77 837 24.72 6.2 43.1 58 -1.5 29.3
01:35 1008 29.77 837 24.72 6.1 43 58 -1.5 29.2
01:40 1008 29.77 837 24.72 6.1 43 58 -1.6 29
01:45 1008 29.77 837 24.72 6.1 43.1 58 -1.4 29.5
01:50 1008 29.77 837 24.72 6 42.8 59 -1.4 29.5
01:55 1008 29.77 837 24.72 6.1 43 59 -1.3 29.6
02:00 1007 29.74 837 24.72 6.1 42.9 59 -1.4 29.5
02:05 1007 29.74 837 24.72 6.2 43.1 58 -1.6 29.2
02:10 1007 29.74 837 24.72 6.3 43.4 57 -1.6 29.2
02:15 1007 29.74 837 24.72 6.4 43.6 57 -1.4 29.5
02:20 1007 29.74 837 24.72 6.4 43.5 58 -1.4 29.6
02:25 1007 29.74 836 24.69 6.4 43.5 57 -1.5 29.3
02:30 1007 29.74 836 24.69 6.5 43.6 56 -1.6 29.1
02:35 1007 29.74 836 24.69 6.6 43.9 55 -1.6 29
02:40 1007 29.74 836 24.69 6.6 43.9 57 -1.4 29.5
02:45 1007 29.74 836 24.69 6.6 43.8 56 -1.5 29.3
02:50 1007 29.74 836 24.69 6.5 43.7 57 -1.3 29.7
02:55 1007 29.74 836 24.69 6.3 43.4 58 -1.4 29.5
03:00 1007 29.74 836 24.69 6.4 43.5 56 -1.8 28.7
03:05 1007 29.74 836 24.69 6.6 44 54 -2 28.4
03:10 1007 29.74 836 24.69 6.8 44.3 53 -2 28.3
03:15 1007 29.74 836 24.69 6.9 44.5 52 -2.2 28
03:20 1007 29.74 836 24.69 7.1 44.7 52 -2 28.3
03:25 1007 29.74 836 24.69 6.9 44.5 53 -1.9 28.5
03:30 1007 29.74 836 24.69 6.9 44.4 54 -1.8 28.7
03:35 1007 29.74 836 24.69 6.7 44.1 55 -1.6 29.2
03:40 1007 29.74 836 24.69 6.5 43.7 61 -0.5 31.2
03:45 1007 29.74 836 24.69 5.9 42.7 64 -0.3 31.5
03:50 1007 29.74 836 24.69 5.8 42.4 65 -0.3 31.4
03:55 1007 29.74 836 24.69 5.8 42.5 64 -0.5 31.2
04:00 1007 29.74 836 24.69 5.9 42.6 64 -0.4 31.3
04:05 1007 29.74 836 24.69 6 42.7 64 -0.4 31.2
04:10 1007 29.74 837 24.72 6 42.8 64 -0.4 31.3
04:15 1008 29.77 837 24.72 5.8 42.5 67 0.2 32.4
04:20 1008 29.77 837 24.72 5.3 41.5 69 0 32
04:25 1007 29.74 837 24.72 5.3 41.5 68 -0.1 31.8
04:30 1007 29.74 837 24.72 5.3 41.5 68 -0.1 31.8
04:35 1008 29.77 837 24.72 5.2 41.3 69 -0.1 31.8
04:40 1007 29.74 837 24.72 5.2 41.4 64 -1 30.2
04:45 1007 29.74 837 24.72 5.3 41.5 62 -1.5 29.3
04:50 1008 29.77 837 24.72 5.2 41.4 60 -1.8 28.7
04:55 1008 29.77 837 24.72 5.2 41.4 60 -2 28.5
05:00 1008 29.77 837 24.72 5.3 41.5 60 -1.9 28.7
05:05 1008 29.77 837 24.72 5.1 41.2 60 -2 28.4
05:10 1008 29.77 837 24.72 5 40.9 59 -2.4 27.7
05:15 1008 29.77 837 24.72 4.9 40.8 58 -2.6 27.3
05:20 1008 29.77 837 24.72 4.9 40.9 58 -2.5 27.4
05:25 1008 29.77 837 24.72 4.8 40.7 60 -2.2 28.1
05:30 1008 29.77 837 24.72 4.7 40.4 63 -1.8 28.7
05:35 1008 29.77 837 24.72 4.5 40.2 65 -1.4 29.4
05:40 1008 29.77 837 24.72 4.5 40.1 68 -0.8 30.5
05:45 1008 29.77 837 24.72 4.3 39.7 73 -0.2 31.6
05:50 1008 29.77 837 24.72 3.7 38.7 80 0.5 33
05:55 1008 29.77 837 24.72 3.1 37.6 85 0.8 33.4
06:00 1008 29.77 837 24.72 2.8 37 86 0.6 33.2
06:05 1008 29.77 837 24.72 2.7 36.9 87 0.8 33.4
06:10 1008 29.77 837 24.72 2.7 36.9 86 0.5 33
06:15 1008 29.77 837 24.72 2.6 36.6 87 0.6 33.1
06:20 1008 29.77 837 24.72 2.3 36.2 88 0.5 33
06:25 1008 29.77 837 24.72 2.1 35.8 89 0.5 32.8
06:30 1008 29.77 837 24.72 1.9 35.4 91 0.5 32.9
06:35 1008 29.77 837 24.72 1.5 34.8 92 0.4 32.7
06:40 1008 29.77 837 24.72 1.4 34.5 93 0.4 32.6
06:45 1008 29.77 837 24.72 1.2 34.1 94 0.3 32.5
06:50 1008 29.77 837 24.72 0.8 33.5 95 0.1 32.2
06:55 1008 29.77 837 24.72 0.8 33.4 96 0.2 32.4
07:00 1008 29.77 837 24.72 0.9 33.7 96 0.4 32.7
07:05 1008 29.77 837 24.72 1.2 34.1 96 0.6 33
07:10 1008 29.77 837 24.72 1.3 34.4 95 0.7 33.2
07:15 1008 29.77 837 24.72 1.3 34.4 95 0.6 33.1
07:20 1008 29.77 837 24.72 1.4 34.4 95 0.6 33
07:25 1008 29.77 837 24.72 1.4 34.5 95 0.6 33.1
07:30 1008 29.77 837 24.72 1.5 34.7 95 0.7 33.3
07:35 1008 29.77 837 24.72 1.6 34.8 94 0.7 33.3
07:40 1008 29.77 837 24.72 1.7 35.1 93 0.7 33.3
07:45 1008 29.77 837 24.72 1.8 35.2 93 0.8 33.4
07:50 1008 29.77 837 24.72 1.8 35.2 93 0.7 33.2
07:55 1008 29.77 837 24.72 1.5 34.7 94 0.6 33.1
08:00 1008 29.77 837 24.72 1.6 34.9 94 0.8 33.4
08:05 1008 29.77 837 24.72 1.7 35.1 93 0.7 33.3
08:10 1008 29.77 837 24.72 1.4 34.6 94 0.6 33.1
08:15 1008 29.77 837 24.72 1.2 34.1 96 0.6 33
08:20 1008 29.77 837 24.72 1.2 34.2 96 0.7 33.2
08:25 1008 29.77 837 24.72 1.5 34.7 95 0.8 33.4
08:30 1008 29.77 837 24.72 1.5 34.7 95 0.7 33.3
08:35 1008 29.77 837 24.72 1.6 34.9 95 0.8 33.5
08:40 1008 29.77 837 24.72 1.6 34.9 94 0.7 33.3
08:45 1008 29.77 837 24.72 1.6 34.9 94 0.8 33.4
08:50 1008 29.77 837 24.72 1.7 35.1 94 0.8 33.5
08:55 1008 29.77 837 24.72 1.6 35 94 0.8 33.4
09:00 1008 29.77 837 24.72 1.8 35.2 94 0.9 33.5
09:05 1008 29.77 837 24.72 2 35.6 93 1 33.8
09:10 1008 29.77 837 24.72 2.4 36.4 90 0.9 33.7
09:15 1008 29.77 837 24.72 2.4 36.4 91 1.1 34
09:20 1008 29.77 837 24.72 2.6 36.7 91 1.2 34.2
09:25 1008 29.77 837 24.72 2.8 37.1 89 1.2 34.2
09:30 1008 29.77 837 24.72 3 37.4 89 1.3 34.4
09:35 1008 29.77 837 24.72 2.9 37.2 90 1.5 34.6
09:40 1008 29.77 837 24.72 2.9 37.2 90 1.4 34.6
09:45 1008 29.77 837 24.72 2.8 37.1 90 1.4 34.5
09:50 1008 29.77 837 24.72 2.9 37.2 90 1.5 34.7
09:55 1008 29.77 837 24.72 2.9 37.3 91 1.6 34.9
10:00 1008 29.77 837 24.72 2.9 37.2 91 1.5 34.7
10:05 1008 29.77 837 24.72 2.6 36.8 92 1.4 34.5
10:10 1008 29.77 838 24.75 2.5 36.5 91 1.1 34.1
10:15 1008 29.77 838 24.75 2.2 35.9 93 1.2 34.1
10:20 1008 29.77 838 24.75 2.1 35.8 93 1.1 34.1
10:25 1008 29.77 838 24.75 2.1 35.7 93 1.1 33.9
10:30 1008 29.77 838 24.75 2 35.7 94 1.1 34
10:35 1009 29.8 838 24.75 2 35.5 94 1.1 34
10:40 1009 29.8 838 24.75 2 35.5 94 1.1 33.9
10:45 1009 29.8 838 24.75 2 35.6 94 1.1 34
10:50 1009 29.8 838 24.75 2.1 35.9 93 1.1 34
10:55 1009 29.8 838 24.75 1.9 35.5 93 0.9 33.6
11:00 1009 29.8 838 24.75 1.8 35.3 94 1 33.7
11:05 1009 29.8 838 24.75 1.9 35.3 93 0.9 33.6
11:10 1009 29.8 838 24.75 1.8 35.3 93 0.9 33.6
11:15 1009 29.8 838 24.75 1.9 35.4 94 1 33.8
11:20 1009 29.8 838 24.75 1.8 35.2 94 0.9 33.6
11:25 1009 29.8 838 24.75 1.7 35.1 94 0.9 33.6
11:30 1009 29.8 838 24.75 1.8 35.2 94 0.9 33.7
11:35 1009 29.8 838 24.75 1.8 35.2 94 0.9 33.6
11:40 1009 29.8 838 24.75 2 35.5 94 1.1 34
11:45 1009 29.8 838 24.75 2 35.6 93 1 33.7
11:50 1009 29.8 838 24.75 1.9 35.4 94 1 33.8
11:55 1009 29.8 838 24.75 1.9 35.4 93 0.9 33.7
12:00 1009 29.8 839 24.78 1.8 35.2 94 0.9 33.6
12:05 1009 29.8 839 24.78 1.6 34.9 95 0.9 33.5
12:10 1009 29.8 839 24.78 1.6 34.8 94 0.7 33.3
12:15 1009 29.8 839 24.78 1.5 34.7 95 0.8 33.4
12:20 1009 29.8 839 24.78 1.6 34.9 94 0.8 33.4
12:25 1009 29.8 838 24.75 1.8 35.2 95 1 33.9
12:30 1009 29.8 838 24.75 2.2 35.9 93 1.1 34
12:35 1009 29.8 838 24.75 2.5 36.6 93 1.4 34.6
12:40 1009 29.8 838 24.75 2.4 36.4 92 1.3 34.4
12:45 1009 29.8 838 24.75 2.3 36.1 94 1.5 34.6
12:50 1009 29.8 838 24.75 2.6 36.6 93 1.6 34.8
12:55 1009 29.8 838 24.75 3.3 38 88 1.5 34.7
13:00 1009 29.8 838 24.75 3 37.4 92 1.9 35.3
13:05 1009 29.8 838 24.75 3.4 38 89 1.7 35
13:10 1009 29.8 838 24.75 3.5 38.3 87 1.5 34.7
13:15 1009 29.8 838 24.75 4.4 39.8 83 1.7 35
13:20 1009 29.8 838 24.75 4.6 40.4 81 1.7 35.1
13:25 1009 29.8 838 24.75 4.8 40.7 83 2.2 35.9
13:30 1009 29.8 838 24.75 5.5 41.9 76 1.7 35
13:35 1009 29.8 838 24.75 5.8 42.4 77 2.1 35.8
13:40 1009 29.8 838 24.75 6.2 43.2 78 2.8 37
13:45 1009 29.8 838 24.75 6.9 44.4 73 2.3 36.1
13:50 1009 29.8 838 24.75 7 44.6 75 2.9 37.2
13:55 1009 29.8 838 24.75 6.9 44.3 72 2.1 35.9
14:00 1009 29.8 838 24.75 6.9 44.3 74 2.6 36.7
14:05 1009 29.8 838 24.75 6.9 44.4 72 2.3 36.1
14:10 1009 29.8 838 24.75 7.6 45.8 68 2.2 35.9
14:15 1009 29.8 838 24.75 7.8 46 62 1 33.8
14:20 1009 29.8 838 24.75 7 44.7 67 1.4 34.5
14:25 1009 29.8 838 24.75 7.4 45.3 69 2.1 35.7
14:30 1009 29.8 838 24.75 7.1 44.8 73 2.5 36.5
14:35 1009 29.8 838 24.75 7.2 45 68 1.8 35.2
14:40 1009 29.8 838 24.75 7.5 45.5 67 1.9 35.3
14:45 1009 29.8 838 24.75 8.2 46.7 64 1.8 35.2
14:50 1009 29.8 838 24.75 8.6 47.5 62 1.8 35.3
14:55 1009 29.8 838 24.75 8.3 46.9 65 2.2 35.9
15:00 1009 29.8 838 24.75 8.3 47 63 1.6 34.9
15:05 1009 29.8 838 24.75 7.7 45.9 65 1.6 34.9
15:10 1009 29.8 838 24.75 7.8 46 63 1.2 34.2
15:15 1009 29.8 838 24.75 7.9 46.2 63 1.3 34.4
15:20 1009 29.8 838 24.75 7.5 45.5 67 1.8 35.3
15:25 1009 29.8 838 24.75 7.6 45.6 65 1.4 34.6
15:30 1009 29.8 838 24.75 8.5 47.2 60 1.3 34.3
15:35 1009 29.8 838 24.75 8.9 47.9 59 1.3 34.4
15:40 1009 29.8 838 24.75 8.8 47.8 61 1.7 35
15:45 1009 29.8 838 24.75 8.6 47.5 58 0.8 33.5
15:50 1008 29.77 838 24.75 9.6 49.3 55 1 33.8
15:55 1008 29.77 838 24.75 9.4 49 57 1.4 34.4
16:00 1008 29.77 838 24.75 9.2 48.6 55 0.7 33.2
16:05 1008 29.77 838 24.75 10 49.9 55 1.4 34.6
16:10 1008 29.77 838 24.75 9.8 49.7 54 1.1 33.9
16:15 1008 29.77 838 24.75 10 50 54 1.2 34.2
16:20 1008 29.77 838 24.75 9.6 49.2 53 0.6 33.1
16:25 1008 29.77 837 24.72 10.3 50.5 51 0.6 33.1
16:30 1008 29.77 837 24.72 10.2 50.3 54 1.3 34.4
16:35 1008 29.77 837 24.72 9.3 48.8 56 1.1 33.9
16:40 1008 29.77 837 24.72 9.3 48.7 57 1.2 34.1
16:45 1008 29.77 837 24.72 9.3 48.7 54 0.6 33.1
16:50 1008 29.77 837 24.72 9.2 48.6 57 1.3 34.3
16:55 1008 29.77 837 24.72 8.9 48.1 58 1.2 34.1
17:00 1008 29.77 837 24.72 9 48.1 57 0.9 33.6
17:05 1008 29.77 837 24.72 9.6 49.3 54 0.9 33.6
17:10 1008 29.77 837 24.72 9.5 49.2 56 1.2 34.2
17:15 1008 29.77 837 24.72 9.8 49.6 54 0.9 33.6
17:20 1008 29.77 837 24.72 9.6 49.3 53 0.6 33
17:25 1008 29.77 837 24.72 9.6 49.2 54 0.8 33.5
17:30 1008 29.77 837 24.72 9.5 49.1 56 1.1 34
17:35 1008 29.77 837 24.72 9.9 49.8 53 0.7 33.2
17:40 1008 29.77 837 24.72 10.4 50.7 49 0.1 32.2
17:45 1008 29.77 837 24.72 10.8 51.5 39 -2.6 27.4
17:50 1008 29.77 837 24.72 10.7 51.3 37 -3.2 26.2
17:55 1008 29.77 837 24.72 11.2 52.2 35 -3.7 25.4
18:00 1008 29.77 837 24.72 12.1 53.7 35 -2.8 27
18:05 1008 29.77 837 24.72 11.8 53.2 35 -3.3 26.1
18:10 1008 29.77 837 24.72 12 53.5 35 -2.9 26.7
18:15 1008 29.77 837 24.72 11.2 52.1 38 -2.7 27.1
18:20 1008 29.77 837 24.72 10.7 51.2 37 -3.5 25.8
18:25 1008 29.77 837 24.72 10.8 51.4 37 -3.2 26.3
18:30 1008 29.77 837 24.72 10.6 51.1 37 -3.4 25.9
18:35 1008 29.77 837 24.72 10.4 50.7 37 -3.5 25.7
18:40 1008 29.77 837 24.72 10.4 50.7 38 -3.4 25.9
18:45 1008 29.77 837 24.72 10.5 51 39 -2.7 27.1
18:50 1008 29.77 837 24.72 10.5 50.9 39 -2.9 26.8
18:55 1008 29.77 837 24.72 9.9 49.8 41 -2.5 27.4
19:00 1008 29.77 837 24.72 8.9 48 48 -1.6 29.2
19:05 1008 29.77 837 24.72 8.3 47 52 -1 30.3
19:10 1008 29.77 837 24.72 8.2 46.7 50 -1.7 28.9
19:15 1008 29.77 837 24.72 8.3 46.9 49 -1.7 29
19:20 1008 29.77 837 24.72 8.3 46.9 50 -1.5 29.3
19:25 1008 29.77 837 24.72 8.4 47.2 51 -1.2 29.9
19:30 1008 29.77 837 24.72 8.3 46.9 54 -0.5 31.2
19:35 1008 29.77 837 24.72 8.3 47 51 -1.2 29.9
19:40 1008 29.77 837 24.72 8.3 47 53 -0.8 30.6
19:45 1008 29.77 837 24.72 8.1 46.7 55 -0.4 31.3
19:50 1008 29.77 837 24.72 7.9 46.3 55 -0.5 31.2
19:55 1008 29.77 837 24.72 7.9 46.3 56 -0.3 31.4
20:00 1008 29.77 837 24.72 7.9 46.2 53 -1 30.1
20:05 1008 29.77 837 24.72 7.7 45.8 55 -0.7 30.7
20:10 1008 29.77 837 24.72 7.6 45.7 52 -1.6 29.1
20:15 1008 29.77 837 24.72 7.7 45.9 54 -1 30.3
20:20 1008 29.77 837 24.72 7.5 45.5 55 -0.9 30.4
20:25 1008 29.77 837 24.72 7.4 45.4 55 -1 30.1
20:30 1008 29.77 837 24.72 7.5 45.4 52 -1.8 28.8
20:35 1008 29.77 838 24.75 7.6 45.6 50 -2 28.4
20:40 1008 29.77 838 24.75 7.5 45.4 52 -1.6 29
20:45 1008 29.77 838 24.75 7.4 45.2 53 -1.6 29.1
20:50 1008 29.77 838 24.75 7.1 44.8 55 -1.4 29.5
20:55 1008 29.77 838 24.75 7 44.5 55 -1.3 29.6
21:00 1008 29.77 838 24.75 6.9 44.4 55 -1.4 29.5
21:05 1009 29.8 838 24.75 6.9 44.4 55 -1.5 29.3
21:10 1009 29.8 838 24.75 7 44.6 53 -1.8 28.8
21:15 1009 29.8 838 24.75 7.1 44.7 54 -1.6 29.2
21:20 1009 29.8 838 24.75 7 44.6 54 -1.6 29.1
21:25 1009 29.8 838 24.75 7.1 44.7 54 -1.7 29
21:30 1009 29.8 839 24.78 7.2 44.9 57 -0.7 30.8
21:35 1009 29.8 839 24.78 6.9 44.5 62 0.1 32.3
21:40 1010 29.83 839 24.78 6.7 44.1 64 0.5 33
21:45 1010 29.83 839 24.78 6.5 43.7 67 0.8 33.4
21:50 1010 29.83 839 24.78 6.3 43.3 68 0.8 33.4
21:55 1010 29.83 839 24.78 6.1 43 69 0.8 33.5
22:00 1010 29.83 839 24.78 5.7 42.2 70 0.6 33.1
22:05 1010 29.83 839 24.78 5.4 41.7 70 0.4 32.8
22:10 1010 29.83 839 24.78 5.1 41.3 71 0.3 32.5
22:15 1010 29.83 839 24.78 5.1 41.2 70 0.2 32.3
22:20 1010 29.83 839 24.78 5.1 41.2 71 0.3 32.5
22:25 1010 29.83 839 24.78 4.6 40.3 74 0.3 32.6
22:30 1010 29.83 839 24.78 4.3 39.8 75 0.2 32.4
22:35 1010 29.83 839 24.78 4.3 39.7 75 0.3 32.5
22:40 1010 29.83 839 24.78 4.1 39.4 75 0.2 32.3
22:45 1010 29.83 839 24.78 4.1 39.3 75 0 32
22:50 1010 29.83 839 24.78 4.1 39.4 75 0.1 32.2
22:55 1010 29.83 839 24.78 3.9 39.1 76 0.1 32.2
23:00 1010 29.83 839 24.78 3.8 38.9 76 -0 31.9
23:05 1010 29.83 839 24.78 3.9 39.1 75 -0 31.9
23:10 1010 29.83 839 24.78 3.8 38.9 75 -0.2 31.6
23:15 1010 29.83 839 24.78 4 39.2 74 -0.2 31.6
23:20 1010 29.83 839 24.78 4.1 39.4 73 -0.2 31.6
23:25 1010 29.83 839 24.78 4.2 39.6 74 -0 32
23:30 1010 29.83 839 24.78 4.1 39.4 74 -0.2 31.7
23:35 1010 29.83 839 24.78 4.1 39.3 73 -0.3 31.5
23:40 1010 29.83 839 24.78 4 39.2 74 -0.2 31.7
23:45 1010 29.83 839 24.78 3.5 38.3 77 -0.1 31.8
23:50 1010 29.83 839 24.78 3.3 37.9 78 -0.2 31.6
23:55 1010 29.83 839 24.78 3.2 37.8 79 -0.1 31.8
24:00 1010 29.83 839 24.78 3.1 37.5 79 -0.2 31.6